createdAt,value
2018-05-23T00:01:50.536Z,2.10
2018-05-23T00:04:17.108Z,2.15
2018-05-23T00:06:43.711Z,2.45
2018-05-23T00:09:10.280Z,1.50
2018-05-23T00:11:36.895Z,2.05
2018-05-23T00:14:03.515Z,2.45
2018-05-23T00:16:30.174Z,1.80
2018-05-23T00:18:56.760Z,2.97
2018-05-23T00:21:23.352Z,1.62
2018-05-23T00:23:49.959Z,1.90
2018-05-23T00:26:17.002Z,2.55
2018-05-23T00:28:43.597Z,2.50
2018-05-23T00:31:10.189Z,2.53
2018-05-23T00:33:36.790Z,2.40
2018-05-23T00:36:03.389Z,3.00
2018-05-23T00:38:30.081Z,1.33
2018-05-23T00:40:57.939Z,1.83
2018-05-23T00:43:24.533Z,1.73
2018-05-23T00:45:51.124Z,2.67
2018-05-23T00:48:17.721Z,2.58
2018-05-23T00:50:44.936Z,2.20
2018-05-23T00:53:11.539Z,1.62
2018-05-23T00:55:38.140Z,2.15
2018-05-23T00:58:04.728Z,1.90
2018-05-23T01:00:31.312Z,2.67
2018-05-23T01:02:57.914Z,1.30
2018-05-23T01:05:24.505Z,2.03
2018-05-23T01:07:51.105Z,1.85
2018-05-23T01:10:17.698Z,2.65
2018-05-23T01:12:44.307Z,2.00
2018-05-23T01:15:10.888Z,1.92
2018-05-23T01:17:37.494Z,2.03
2018-05-23T01:20:04.082Z,2.00
2018-05-23T01:22:30.676Z,1.83
2018-05-23T01:24:57.277Z,2.45
2018-05-23T01:27:24.257Z,2.10
2018-05-23T01:29:51.547Z,2.17
2018-05-23T01:32:18.147Z,2.67
2018-05-23T01:34:44.746Z,2.40
2018-05-23T01:37:11.342Z,1.65
2018-05-23T01:39:37.936Z,2.72
2018-05-23T01:42:04.535Z,2.08
2018-05-23T01:44:31.132Z,2.00
2018-05-23T01:46:57.722Z,2.00
2018-05-23T01:49:27.047Z,2.20
2018-05-23T01:51:53.628Z,2.35
2018-05-23T01:54:20.216Z,2.28
2018-05-23T01:56:46.821Z,1.80
2018-05-23T01:59:13.420Z,2.85
2018-05-23T02:01:40.888Z,1.98
2018-05-23T02:04:07.490Z,2.15
2018-05-23T02:06:34.076Z,2.35
2018-05-23T02:09:00.667Z,1.80
2018-05-23T02:11:27.256Z,2.00
2018-05-23T02:13:55.150Z,2.33
2018-05-23T02:16:21.755Z,2.33
2018-05-23T02:18:48.336Z,1.80
2018-05-23T02:21:14.928Z,2.78
2018-05-23T02:23:41.523Z,2.00
2018-05-23T02:26:08.108Z,2.58
2018-05-23T02:28:34.710Z,2.00
2018-05-23T02:31:01.315Z,2.37
2018-05-23T02:33:27.930Z,2.17
2018-05-23T02:35:54.504Z,2.65
2018-05-23T02:38:21.097Z,2.30
2018-05-23T02:40:47.683Z,2.37
2018-05-23T02:43:14.286Z,1.75
2018-05-23T02:45:40.872Z,2.20
2018-05-23T02:48:07.457Z,3.12
2018-05-23T02:50:34.063Z,2.72
2018-05-23T02:53:00.662Z,2.28
2018-05-23T02:55:27.252Z,2.50
2018-05-23T02:57:53.840Z,2.30
2018-05-23T03:00:20.433Z,1.58
2018-05-23T03:02:47.118Z,2.72
2018-05-23T03:05:13.662Z,3.15
2018-05-23T03:07:40.754Z,2.42
2018-05-23T03:10:07.341Z,2.22
2018-05-23T03:12:33.949Z,2.25
2018-05-23T03:15:00.542Z,2.25
2018-05-23T03:17:27.135Z,1.73
2018-05-23T03:19:53.721Z,2.37
2018-05-23T03:22:20.312Z,2.15
2018-05-23T03:24:47.504Z,2.17
2018-05-23T03:27:14.106Z,1.42
2018-05-23T03:29:40.703Z,1.80
2018-05-23T03:32:07.316Z,1.23
2018-05-23T03:34:33.889Z,1.95
2018-05-23T03:37:00.482Z,2.80
2018-05-23T03:39:27.065Z,2.30
2018-05-23T03:41:53.654Z,2.40
2018-05-23T03:44:20.259Z,2.15
2018-05-23T03:46:47.279Z,1.60
2018-05-23T03:49:14.924Z,2.03
2018-05-23T03:51:44.316Z,2.37
2018-05-23T03:54:14.628Z,1.80
2018-05-23T03:56:42.304Z,2.15
2018-05-23T03:59:11.988Z,2.50
2018-05-23T04:01:46.739Z,2.25
2018-05-23T04:04:21.768Z,3.12
2018-05-23T04:06:59.139Z,1.85
2018-05-23T04:09:30.407Z,1.67
2018-05-23T04:11:57.370Z,2.35
2018-05-23T04:14:25.765Z,2.72
2018-05-23T04:16:59.845Z,1.90
2018-05-23T04:19:29.024Z,2.78
2018-05-23T04:21:56.364Z,2.85
2018-05-23T04:24:26.133Z,2.87
2018-05-23T04:26:55.001Z,3.08
2018-05-23T04:29:23.292Z,2.30
2018-05-23T04:31:54.655Z,1.60
2018-05-23T04:34:23.600Z,2.33
2018-05-23T04:36:53.016Z,2.97
2018-05-23T04:39:20.935Z,1.50
2018-05-23T04:41:50.576Z,2.60
2018-05-23T04:44:19.344Z,3.03
2018-05-23T04:46:51.486Z,2.40
2018-05-23T04:49:19.753Z,2.35
2018-05-23T04:51:47.849Z,2.08
2018-05-23T04:54:14.996Z,2.10
2018-05-23T04:56:42.716Z,1.80
2018-05-23T04:59:12.039Z,2.25
2018-05-23T05:01:39.586Z,2.10
2018-05-23T05:04:06.506Z,2.50
2018-05-23T05:06:33.758Z,2.10
2018-05-23T05:09:01.252Z,1.85
2018-05-23T05:11:27.856Z,2.92
2018-05-23T05:13:54.441Z,1.67
2018-05-23T05:16:21.032Z,1.95
2018-05-23T05:18:48.652Z,1.92
2018-05-23T05:21:15.247Z,1.92
2018-05-23T05:23:41.843Z,1.70
2018-05-23T05:26:08.428Z,2.35
2018-05-23T05:28:35.031Z,1.60
2018-05-23T05:31:01.635Z,1.92
2018-05-23T05:33:28.243Z,2.12
2018-05-23T05:35:54.828Z,2.15
2018-05-23T05:38:21.430Z,2.30
2018-05-23T05:40:48.026Z,2.03
2018-05-23T05:43:14.631Z,1.85
2018-05-23T05:45:41.242Z,1.80
2018-05-23T05:48:07.821Z,1.55
2018-05-23T05:50:34.418Z,1.90
2018-05-23T05:53:01.018Z,2.28
2018-05-23T05:55:27.622Z,2.12
2018-05-23T05:57:54.269Z,1.73
2018-05-23T06:00:20.865Z,2.75
2018-05-23T06:02:47.482Z,1.77
2018-05-23T06:05:14.071Z,2.65
2018-05-23T06:07:40.665Z,2.05
2018-05-23T06:10:07.254Z,3.10
2018-05-23T06:12:33.868Z,2.00
2018-05-23T06:15:00.473Z,1.20
2018-05-23T06:17:27.063Z,2.37
2018-05-23T06:19:53.663Z,1.80
2018-05-23T06:22:20.276Z,2.37
2018-05-23T06:24:46.870Z,1.80
2018-05-23T06:27:13.467Z,2.55
2018-05-23T06:29:40.060Z,2.25
2018-05-23T06:32:07.720Z,2.12
2018-05-23T06:34:34.651Z,3.42
2018-05-23T06:37:01.455Z,1.45
2018-05-23T06:39:28.180Z,1.90
2018-05-23T06:41:54.921Z,2.12
2018-05-23T06:44:22.426Z,3.10
2018-05-23T06:46:49.855Z,2.25
2018-05-23T06:49:16.437Z,2.60
2018-05-23T06:51:43.020Z,2.12
2018-05-23T06:54:09.617Z,2.78
2018-05-23T06:56:36.223Z,4.32
2018-05-23T06:59:02.808Z,3.17
2018-05-23T07:01:29.407Z,2.97
2018-05-23T07:03:56.005Z,2.95
2018-05-23T07:06:22.592Z,3.12
2018-05-23T07:08:49.171Z,2.55
2018-05-23T07:11:15.808Z,2.65
2018-05-23T07:13:43.358Z,3.45
2018-05-23T07:16:09.956Z,2.30
2018-05-23T07:18:36.547Z,3.50
2018-05-23T07:21:03.156Z,2.72
2018-05-23T07:23:29.757Z,5.40
2018-05-23T07:25:56.414Z,2.50
2018-05-23T07:28:22.943Z,2.50
2018-05-23T07:30:49.528Z,3.00
2018-05-23T07:33:16.120Z,3.37
2018-05-23T07:35:42.714Z,2.72
2018-05-23T07:38:09.304Z,2.33
2018-05-23T07:40:35.904Z,2.65
2018-05-23T07:43:02.901Z,2.95
2018-05-23T07:45:30.466Z,2.03
2018-05-23T07:47:57.070Z,2.85
2018-05-23T07:50:23.656Z,1.80
2018-05-23T07:52:50.273Z,2.10
2018-05-23T07:55:16.855Z,2.95
2018-05-23T07:57:43.445Z,2.70
2018-05-23T08:00:10.052Z,3.15
2018-05-23T08:02:36.781Z,2.92
2018-05-23T08:05:03.364Z,2.60
2018-05-23T08:07:29.952Z,2.90
2018-05-23T08:09:56.545Z,2.97
2018-05-23T08:12:23.170Z,2.60
2018-05-23T08:14:49.755Z,3.15
2018-05-23T08:17:16.349Z,2.80
2018-05-23T08:19:42.958Z,3.95
2018-05-23T08:22:09.832Z,1.95
2018-05-23T08:24:36.412Z,2.25
2018-05-23T08:27:03.020Z,3.00
2018-05-23T08:29:29.614Z,3.65
2018-05-23T08:31:56.206Z,2.25
2018-05-23T08:34:22.810Z,2.50
2018-05-23T08:36:49.396Z,2.33
2018-05-23T08:39:16.003Z,2.12
2018-05-23T08:41:42.599Z,2.75
2018-05-23T08:44:09.184Z,2.03
2018-05-23T08:46:35.787Z,2.20
2018-05-23T08:49:02.372Z,2.30
2018-05-23T08:51:28.960Z,2.35
2018-05-23T08:53:55.548Z,1.98
2018-05-23T08:56:22.160Z,2.22
2018-05-23T08:58:48.750Z,2.50
2018-05-23T09:01:15.333Z,2.83
2018-05-23T09:03:41.923Z,3.25
2018-05-23T09:06:08.538Z,1.83
2018-05-23T09:08:35.135Z,2.30
2018-05-23T09:11:01.720Z,2.55
2018-05-23T09:13:28.332Z,3.67
2018-05-23T09:15:54.916Z,1.85
2018-05-23T09:18:21.514Z,2.72
2018-05-23T09:20:48.114Z,2.80
2018-05-23T09:23:14.709Z,2.55
2018-05-23T09:25:41.292Z,2.25
2018-05-23T09:28:07.881Z,2.42
2018-05-23T09:30:34.476Z,2.10
2018-05-23T09:33:01.073Z,3.08
2018-05-23T09:35:27.666Z,2.00
2018-05-23T09:37:54.270Z,3.55
2018-05-23T09:40:20.852Z,2.35
2018-05-23T09:42:47.918Z,2.75
2018-05-23T09:45:14.530Z,2.55
2018-05-23T09:47:41.116Z,2.20
2018-05-23T09:50:07.704Z,2.87
2018-05-23T09:52:34.294Z,1.85
2018-05-23T09:55:00.963Z,1.95
2018-05-23T09:57:27.486Z,2.45
2018-05-23T09:59:54.081Z,1.83
2018-05-23T10:02:20.661Z,2.37
2018-05-23T10:04:47.270Z,1.90
2018-05-23T10:07:13.882Z,4.22
2018-05-23T10:09:40.470Z,2.65
2018-05-23T10:12:07.056Z,2.33
2018-05-23T10:14:33.663Z,2.30
2018-05-23T10:17:00.245Z,2.20
2018-05-23T10:19:26.843Z,2.70
2018-05-23T10:21:53.431Z,3.35
2018-05-23T10:24:20.017Z,2.10
2018-05-23T10:26:47.263Z,1.73
2018-05-23T10:29:13.856Z,2.20
2018-05-23T10:31:40.506Z,1.80
2018-05-23T10:34:07.243Z,2.28
2018-05-23T10:36:33.869Z,2.45
2018-05-23T10:39:00.543Z,2.25
2018-05-23T10:41:27.151Z,2.05
2018-05-23T10:43:53.756Z,2.72
2018-05-23T10:46:20.530Z,2.22
2018-05-23T10:48:47.029Z,3.08
2018-05-23T10:51:13.684Z,3.37
2018-05-23T10:53:40.272Z,2.83
2018-05-23T10:56:06.956Z,2.10
2018-05-23T10:58:33.556Z,1.90
2018-05-23T11:01:00.253Z,4.28
2018-05-23T11:03:26.834Z,2.65
2018-05-23T11:05:53.486Z,3.00
2018-05-23T11:08:20.150Z,3.53
2018-05-23T11:10:46.796Z,2.08
2018-05-23T11:13:13.400Z,2.97
2018-05-23T11:15:39.975Z,3.58
2018-05-23T11:18:06.683Z,2.85
2018-05-23T11:20:33.284Z,3.80
2018-05-23T11:22:59.872Z,3.47
2018-05-23T11:25:26.460Z,3.45
2018-05-23T11:27:53.057Z,2.95
2018-05-23T11:30:19.636Z,3.75
2018-05-23T11:32:46.233Z,4.00
2018-05-23T11:35:12.820Z,3.05
2018-05-23T11:37:39.422Z,2.67
2018-05-23T11:40:06.032Z,3.70
2018-05-23T11:42:32.616Z,2.87
2018-05-23T11:45:00.507Z,2.70
2018-05-23T11:47:27.162Z,2.42
2018-05-23T11:49:53.748Z,3.05
2018-05-23T11:52:21.255Z,2.40
2018-05-23T11:54:47.842Z,2.25
2018-05-23T11:57:14.442Z,2.15
2018-05-23T11:59:41.032Z,2.85
2018-05-23T12:02:07.636Z,2.37
2018-05-23T12:04:34.225Z,3.08
2018-05-23T12:07:01.257Z,2.72
2018-05-23T12:09:27.847Z,2.15
2018-05-23T12:11:54.445Z,3.30
2018-05-23T12:14:21.528Z,2.65
2018-05-23T12:16:48.115Z,3.30
2018-05-23T12:19:14.715Z,1.92
2018-05-23T12:21:41.315Z,3.83
2018-05-23T12:24:07.904Z,3.25
2018-05-23T12:26:34.503Z,2.45
2018-05-23T12:29:01.212Z,3.10
2018-05-23T12:31:27.806Z,3.58
2018-05-23T12:33:54.397Z,3.08
2018-05-23T12:36:21.002Z,4.18
2018-05-23T12:38:48.426Z,4.07
2018-05-23T12:41:15.034Z,3.72
2018-05-23T12:43:41.643Z,3.30
2018-05-23T12:46:08.236Z,3.37
2018-05-23T12:48:34.923Z,3.47
2018-05-23T12:51:01.525Z,4.47
2018-05-23T12:53:28.118Z,3.40
2018-05-23T12:55:54.723Z,3.25
2018-05-23T12:58:21.322Z,3.40
2018-05-23T13:00:47.905Z,2.90
2018-05-23T13:03:14.496Z,2.90
2018-05-23T13:05:41.091Z,3.35
2018-05-23T13:08:07.672Z,2.87
2018-05-23T13:10:34.266Z,3.35
2018-05-23T13:13:00.919Z,3.12
2018-05-23T13:15:27.626Z,2.62
2018-05-23T13:17:54.351Z,2.90
2018-05-23T13:20:20.869Z,2.60
2018-05-23T13:22:47.730Z,3.00
2018-05-23T13:25:14.327Z,2.78
2018-05-23T13:27:41.080Z,2.45
2018-05-23T13:30:07.660Z,4.10
2018-05-23T13:32:34.256Z,2.95
2018-05-23T13:35:00.866Z,2.45
2018-05-23T13:37:27.457Z,2.92
2018-05-23T13:39:54.041Z,2.28
2018-05-23T13:42:20.643Z,2.50
2018-05-23T13:44:48.329Z,3.00
2018-05-23T13:47:14.899Z,3.00
2018-05-23T13:49:41.515Z,2.35
2018-05-23T13:52:08.126Z,2.80
2018-05-23T13:54:34.712Z,3.35
2018-05-23T13:57:01.308Z,2.97
2018-05-23T13:59:27.894Z,1.90
2018-05-23T14:01:55.086Z,2.62
2018-05-23T14:04:22.048Z,2.65
2018-05-23T14:06:48.647Z,2.45
2018-05-23T14:09:19.503Z,2.03
2018-05-23T14:11:46.328Z,2.35
2018-05-23T14:14:12.931Z,2.65
2018-05-23T14:16:40.335Z,2.75
2018-05-23T14:19:07.613Z,2.30
2018-05-23T14:21:34.160Z,2.28
2018-05-23T14:24:00.777Z,2.35
2018-05-23T14:26:27.377Z,3.20
2018-05-23T14:28:53.983Z,3.08
2018-05-23T14:31:20.591Z,2.20
2018-05-23T14:33:47.202Z,2.75
2018-05-23T14:36:13.792Z,2.55
2018-05-23T14:38:40.408Z,2.30
2018-05-23T14:41:07.414Z,2.58
2018-05-23T14:43:35.101Z,2.72
2018-05-23T14:46:01.625Z,2.67
2018-05-23T14:48:28.717Z,2.47
2018-05-23T14:50:56.064Z,2.22
2018-05-23T14:53:22.656Z,3.58
2018-05-23T14:55:50.126Z,2.50
2018-05-23T14:58:17.079Z,2.33
2018-05-23T15:00:43.677Z,3.67
2018-05-23T15:03:10.373Z,2.95
2018-05-23T15:05:36.982Z,2.62
2018-05-23T15:08:03.589Z,2.75
2018-05-23T15:10:30.181Z,2.40
2018-05-23T15:12:57.027Z,2.75
2018-05-23T15:15:23.619Z,2.00
2018-05-23T15:17:50.208Z,2.70
2018-05-23T15:20:16.832Z,4.18
2018-05-23T15:22:43.435Z,3.00
2018-05-23T15:25:10.025Z,2.60
2018-05-23T15:27:36.638Z,2.25
2018-05-23T15:30:03.228Z,2.20
2018-05-23T15:32:29.841Z,2.40
2018-05-23T15:34:56.466Z,3.80
2018-05-23T15:37:23.073Z,2.45
2018-05-23T15:39:49.711Z,3.42
2018-05-23T15:42:16.302Z,3.45
2018-05-23T15:44:43.987Z,3.37
2018-05-23T15:47:10.587Z,3.45
2018-05-23T15:49:37.849Z,4.22
2018-05-23T15:52:04.455Z,4.15
2018-05-23T15:54:31.067Z,3.72
2018-05-23T15:56:57.761Z,5.22
2018-05-23T15:59:24.393Z,4.28
2018-05-23T16:01:50.998Z,3.17
2018-05-23T16:04:17.584Z,3.70
2018-05-23T16:06:44.186Z,4.65
2018-05-23T16:09:10.797Z,6.85
2018-05-23T16:11:37.380Z,4.30
2018-05-23T16:14:03.986Z,5.78
2018-05-23T16:16:30.634Z,4.40
2018-05-23T16:18:57.230Z,3.75
2018-05-23T16:21:23.812Z,4.43
2018-05-23T16:23:50.405Z,12.32
2018-05-23T16:26:17.039Z,17.62
2018-05-23T16:28:43.782Z,16.40
2018-05-23T16:31:10.627Z,18.37
2018-05-23T16:33:37.353Z,64.82
2018-05-23T16:36:04.876Z,115.68
2018-05-23T16:38:31.494Z,117.32
2018-05-23T16:40:58.097Z,55.28
2018-05-23T16:43:24.703Z,25.02
2018-05-23T16:45:51.319Z,18.40
2018-05-23T16:48:17.918Z,15.50
2018-05-23T16:50:44.524Z,12.15
2018-05-23T16:53:11.137Z,14.10
2018-05-23T16:55:37.733Z,13.27
2018-05-23T16:58:04.329Z,11.18
2018-05-23T17:00:31.035Z,12.70
2018-05-23T17:02:57.823Z,10.52
2018-05-23T17:05:24.717Z,10.38
2018-05-23T17:07:51.315Z,8.30
2018-05-23T17:10:17.947Z,8.90
2018-05-23T17:12:44.618Z,8.73
2018-05-23T17:15:11.225Z,10.18
2018-05-23T17:17:37.830Z,14.68
2018-05-23T17:20:04.421Z,8.02
2018-05-23T17:22:31.032Z,6.43
2018-05-23T17:24:57.697Z,8.07
2018-05-23T17:27:24.421Z,8.00
2018-05-23T17:29:51.049Z,7.60
2018-05-23T17:32:17.720Z,7.00
2018-05-23T17:34:44.301Z,6.87
2018-05-23T17:37:10.961Z,7.50
2018-05-23T17:39:37.621Z,6.97
2018-05-23T17:42:04.304Z,4.45
2018-05-23T17:44:31.686Z,6.12
2018-05-23T17:46:58.268Z,5.47
2018-05-23T17:49:25.067Z,5.30
2018-05-23T17:51:52.613Z,5.93
2018-05-23T17:54:19.194Z,4.57
2018-05-23T17:56:45.773Z,5.80
2018-05-23T17:59:13.316Z,4.03
2018-05-23T18:01:40.808Z,5.03
2018-05-23T18:04:07.411Z,6.53
2018-05-23T18:06:34.010Z,5.62
2018-05-23T18:09:00.590Z,4.75
2018-05-23T18:11:27.379Z,5.62
2018-05-23T18:13:54.002Z,3.80
2018-05-23T18:16:20.631Z,4.50
2018-05-23T18:18:47.816Z,3.83
2018-05-23T18:21:14.419Z,4.25
2018-05-23T18:23:41.294Z,5.70
2018-05-23T18:26:07.856Z,6.03
2018-05-23T18:28:34.529Z,6.37
2018-05-23T18:31:01.061Z,5.35
2018-05-23T18:33:27.675Z,5.15
2018-05-23T18:35:54.299Z,6.22
2018-05-23T18:38:20.877Z,4.60
2018-05-23T18:40:47.472Z,6.07
2018-05-23T18:43:14.082Z,5.40
2018-05-23T18:45:40.674Z,4.18
2018-05-23T18:48:07.265Z,5.87
2018-05-23T18:50:33.867Z,5.50
2018-05-23T18:53:00.457Z,4.47
2018-05-23T18:55:27.056Z,5.30
2018-05-23T18:57:53.646Z,4.87
2018-05-23T19:00:20.251Z,3.25
2018-05-23T19:02:46.866Z,5.07
2018-05-23T19:05:13.483Z,4.65
2018-05-23T19:07:40.115Z,9.82
2018-05-23T19:10:06.705Z,15.35
2018-05-23T19:12:33.296Z,8.35
2018-05-23T19:14:59.893Z,8.90
2018-05-23T19:17:26.518Z,10.18
2018-05-23T19:19:53.198Z,11.57
2018-05-23T19:22:19.725Z,12.00
2018-05-23T19:24:47.008Z,12.37
2018-05-23T19:27:16.971Z,12.93
2018-05-23T19:29:43.580Z,11.73
2018-05-23T19:32:11.711Z,12.45
2018-05-23T19:34:39.722Z,11.00
2018-05-23T19:37:07.638Z,14.05
2018-05-23T19:39:35.095Z,13.90
2018-05-23T19:42:13.123Z,11.18
2018-05-23T19:44:41.440Z,11.45
2018-05-23T19:47:08.581Z,13.88
2018-05-23T19:49:35.173Z,12.13
2018-05-23T19:52:01.782Z,13.27
2018-05-23T19:54:28.378Z,13.35
2018-05-23T19:56:54.991Z,11.00
2018-05-23T19:59:21.610Z,11.93
2018-05-23T20:01:48.225Z,10.48
2018-05-23T20:04:16.114Z,9.85
2018-05-23T20:06:42.727Z,11.12
2018-05-23T20:09:11.423Z,12.07
2018-05-23T20:11:38.458Z,10.40
2018-05-23T20:14:05.185Z,10.02
2018-05-23T20:16:33.327Z,9.63
2018-05-23T20:18:59.922Z,11.02
2018-05-23T20:21:26.526Z,10.32
2018-05-23T20:23:53.127Z,9.65
2018-05-23T20:26:19.722Z,9.20
2018-05-23T20:28:46.325Z,10.20
2018-05-23T20:31:12.930Z,10.50
2018-05-23T20:33:39.541Z,10.90
2018-05-23T20:36:06.130Z,9.77
2018-05-23T20:38:32.756Z,10.68
2018-05-23T20:40:59.351Z,9.40
2018-05-23T20:43:26.329Z,9.50
2018-05-23T20:45:52.927Z,8.90
2018-05-23T20:48:19.559Z,9.68
2018-05-23T20:50:46.146Z,9.52
2018-05-23T20:53:13.492Z,10.45
2018-05-23T20:55:40.084Z,8.70
2018-05-23T20:58:06.697Z,6.68
2018-05-23T21:00:33.290Z,8.05
2018-05-23T21:02:59.883Z,7.00
2018-05-23T21:05:26.618Z,7.30
2018-05-23T21:07:53.089Z,8.55
2018-05-23T21:10:20.619Z,9.45
2018-05-23T21:16:23.279Z,4.40
2018-05-23T21:18:49.845Z,3.80
2018-05-23T21:21:16.450Z,3.35
2018-05-23T21:23:43.054Z,5.07
2018-05-23T21:26:09.640Z,4.43
2018-05-23T21:28:36.243Z,4.30
2018-05-23T21:31:02.851Z,3.90
2018-05-23T21:33:29.775Z,3.03
2018-05-23T21:35:56.371Z,4.30
2018-05-23T21:38:22.964Z,3.37
2018-05-23T21:40:49.560Z,5.05
2018-05-23T21:43:16.160Z,3.95
2018-05-23T21:45:42.765Z,3.65
2018-05-23T21:48:09.373Z,3.15
2018-05-23T21:50:35.962Z,3.50
2018-05-23T21:53:02.555Z,3.28
2018-05-23T21:55:29.159Z,3.60
2018-05-23T21:57:55.744Z,3.30
2018-05-23T22:00:22.324Z,2.28
2018-05-23T22:02:48.934Z,4.22
2018-05-23T22:05:15.530Z,4.32
2018-05-23T22:07:42.112Z,4.25
2018-05-23T22:10:08.723Z,3.60
2018-05-23T22:12:35.314Z,3.40
2018-05-23T22:15:01.910Z,3.00
2018-05-23T22:17:28.519Z,3.53
2018-05-23T22:19:55.107Z,3.60
2018-05-23T22:22:21.700Z,3.55
2018-05-23T22:24:48.323Z,4.20
2018-05-23T22:27:14.932Z,4.05
2018-05-23T22:29:41.532Z,3.55
2018-05-23T22:32:08.120Z,4.55
2018-05-23T22:34:34.712Z,2.67
2018-05-23T22:37:01.292Z,2.75
2018-05-23T22:39:27.889Z,3.42
2018-05-23T22:41:54.488Z,4.78
2018-05-23T22:44:21.179Z,3.25
2018-05-23T22:46:48.967Z,4.10
2018-05-23T22:49:15.555Z,3.45
2018-05-23T22:51:42.144Z,3.50
2018-05-23T22:54:08.731Z,3.35
2018-05-23T22:56:35.326Z,3.00
2018-05-23T22:59:01.908Z,3.85
2018-05-23T23:01:28.501Z,3.47
2018-05-23T23:03:55.112Z,3.90
2018-05-23T23:06:21.697Z,5.35
2018-05-23T23:08:48.288Z,3.17
2018-05-23T23:11:14.878Z,3.40
2018-05-23T23:13:41.476Z,3.95
2018-05-23T23:16:08.063Z,3.30
2018-05-23T23:18:34.662Z,2.47
2018-05-23T23:21:01.271Z,3.12
2018-05-23T23:23:27.852Z,2.83
2018-05-23T23:25:54.441Z,2.83
2018-05-23T23:28:21.032Z,2.80
2018-05-23T23:30:47.638Z,2.62
2018-05-23T23:33:14.234Z,3.65
2018-05-23T23:35:40.832Z,3.17
2018-05-23T23:38:07.440Z,2.53
2018-05-23T23:40:34.030Z,2.67
2018-05-23T23:43:00.624Z,2.87
2018-05-23T23:45:27.226Z,3.95
2018-05-23T23:47:53.816Z,3.17
2018-05-23T23:50:20.410Z,2.40
2018-05-23T23:52:47.009Z,2.60
2018-05-23T23:55:13.606Z,3.35
2018-05-23T23:57:40.206Z,3.70
